Albin, Wyoming
Current Conditions -  °F | °C
As of 10:15 PM on Friday 28 Nov 2014 (Local Time) from K82V Reporting Station
Clear Clear  
Wind Chill: 26°   Ceiling: Unl
Heat Index: 32°   Visibility: 10mi
Dew Point: 19°   Wind: 6mph
Humidity: 60%   Direction: 130°SE
Pressure: 29.75"   Gusts: NA
Location:  41.42°N, 104.1°W
Report Text: K82V 290515Z AUTO 13005KT 10SM CLR 00/M07 A2975 RMK AO2
Loading
Personal Weather Stations






























Interactive Weather Map New forecast layout! Learn more

10-Day Weather Forecast

Advertisements
Track Severe Weather on mobile